sensor_id;sensor_type;location;lat;lon;timestamp;temperature;humidity
7034;DHT22;3558;53.176;10.412;2023-12-20T03:46:27;11.70;89.30
7034;DHT22;3558;53.176;10.412;2023-12-20T03:48:53;11.70;89.10
7034;DHT22;3558;53.176;10.412;2023-12-20T03:51:18;11.70;89.10
7034;DHT22;3558;53.176;10.412;2023-12-20T03:53:44;11.60;89.00
7034;DHT22;3558;53.176;10.412;2023-12-20T03:56:09;11.60;89.00
7034;DHT22;3558;53.176;10.412;2023-12-20T03:58:35;11.60;89.00
7034;DHT22;3558;53.176;10.412;2023-12-20T04:01:00;11.50;89.00
7034;DHT22;3558;53.176;10.412;2023-12-20T04:03:26;11.60;89.10
7034;DHT22;3558;53.176;10.412;2023-12-20T04:05:52;11.50;89.20
7034;DHT22;3558;53.176;10.412;2023-12-20T04:08:17;11.60;89.00
7034;DHT22;3558;53.176;10.412;2023-12-20T04:10:42;11.50;89.00
7034;DHT22;3558;53.176;10.412;2023-12-20T04:13:08;11.50;89.00
7034;DHT22;3558;53.176;10.412;2023-12-20T04:15:33;11.50;89.00
7034;DHT22;3558;53.176;10.412;2023-12-20T04:17:59;11.50;89.00
7034;DHT22;3558;53.176;10.412;2023-12-20T04:20:25;11.50;89.00
7034;DHT22;3558;53.176;10.412;2023-12-20T04:22:50;11.50;88.90
7034;DHT22;3558;53.176;10.412;2023-12-20T04:25:16;11.50;88.80
7034;DHT22;3558;53.176;10.412;2023-12-20T04:27:41;11.40;89.00
7034;DHT22;3558;53.176;10.412;2023-12-20T04:30:07;11.40;89.10
7034;DHT22;3558;53.176;10.412;2023-12-20T04:32:33;11.50;89.20
7034;DHT22;3558;53.176;10.412;2023-12-20T04:34:58;11.50;89.20
7034;DHT22;3558;53.176;10.412;2023-12-20T04:37:24;11.40;89.20
7034;DHT22;3558;53.176;10.412;2023-12-20T04:39:50;11.40;89.20
7034;DHT22;3558;53.176;10.412;2023-12-20T04:42:15;11.40;89.20
7034;DHT22;3558;53.176;10.412;2023-12-20T04:44:41;11.40;89.20
7034;DHT22;3558;53.176;10.412;2023-12-20T04:47:06;11.40;89.30
7034;DHT22;3558;53.176;10.412;2023-12-20T04:49:32;11.40;89.30
7034;DHT22;3558;53.176;10.412;2023-12-20T04:51:57;11.40;89.30
7034;DHT22;3558;53.176;10.412;2023-12-20T04:54:23;11.40;89.30
7034;DHT22;3558;53.176;10.412;2023-12-20T04:56:49;11.40;89.80
7034;DHT22;3558;53.176;10.412;2023-12-20T04:59:14;11.40;89.40
7034;DHT22;3558;53.176;10.412;2023-12-20T05:01:40;11.40;89.40
7034;DHT22;3558;53.176;10.412;2023-12-20T05:04:05;11.40;89.40
7034;DHT22;3558;53.176;10.412;2023-12-20T05:06:31;11.40;89.40
7034;DHT22;3558;53.176;10.412;2023-12-20T05:08:56;11.40;89.40
7034;DHT22;3558;53.176;10.412;2023-12-20T05:11:22;11.40;89.40
7034;DHT22;3558;53.176;10.412;2023-12-20T05:13:47;11.40;89.40
7034;DHT22;3558;53.176;10.412;2023-12-20T05:16:13;11.40;90.00
7034;DHT22;3558;53.176;10.412;2023-12-20T05:18:39;11.40;89.60
7034;DHT22;3558;53.176;10.412;2023-12-20T05:21:05;11.40;89.60
7034;DHT22;3558;53.176;10.412;2023-12-20T05:23:31;11.40;89.60
7034;DHT22;3558;53.176;10.412;2023-12-20T05:25:56;11.40;89.80
7034;DHT22;3558;53.176;10.412;2023-12-20T05:28:21;11.40;89.60
7034;DHT22;3558;53.176;10.412;2023-12-20T05:30:47;11.40;89.70
7034;DHT22;3558;53.176;10.412;2023-12-20T05:33:12;11.40;89.70
7034;DHT22;3558;53.176;10.412;2023-12-20T05:35:38;11.40;89.70
7034;DHT22;3558;53.176;10.412;2023-12-20T05:38:03;11.40;89.70
7034;DHT22;3558;53.176;10.412;2023-12-20T05:40:29;11.40;89.70
7034;DHT22;3558;53.176;10.412;2023-12-20T05:42:54;11.40;89.80
7034;DHT22;3558;53.176;10.412;2023-12-20T05:45:20;11.40;89.80
7034;DHT22;3558;53.176;10.412;2023-12-20T05:47:46;11.40;89.80
7034;DHT22;3558;53.176;10.412;2023-12-20T05:50:11;11.40;89.90
7034;DHT22;3558;53.176;10.412;2023-12-20T05:52:37;11.40;89.80
7034;DHT22;3558;53.176;10.412;2023-12-20T05:55:02;11.40;89.80
7034;DHT22;3558;53.176;10.412;2023-12-20T05:57:28;11.40;90.10
7034;DHT22;3558;53.176;10.412;2023-12-20T05:59:53;11.40;89.80
7034;DHT22;3558;53.176;10.412;2023-12-20T06:02:19;11.40;89.80
7034;DHT22;3558;53.176;10.412;2023-12-20T06:04:44;11.40;89.80
7034;DHT22;3558;53.176;10.412;2023-12-20T06:07:13;11.40;89.80
7034;DHT22;3558;53.176;10.412;2023-12-20T06:09:39;11.40;89.90
7034;DHT22;3558;53.176;10.412;2023-12-20T06:12:07;11.40;89.90
7034;DHT22;3558;53.176;10.412;2023-12-20T06:14:32;11.40;90.00
7034;DHT22;3558;53.176;10.412;2023-12-20T06:16:58;11.40;90.00
7034;DHT22;3558;53.176;10.412;2023-12-20T06:19:23;11.40;90.00
7034;DHT22;3558;53.176;10.412;2023-12-20T06:21:49;11.40;90.00
7034;DHT22;3558;53.176;10.412;2023-12-20T06:24:14;11.40;90.00
7034;DHT22;3558;53.176;10.412;2023-12-20T06:26:40;11.40;90.00
7034;DHT22;3558;53.176;10.412;2023-12-20T06:29:05;11.40;90.00
7034;DHT22;3558;53.176;10.412;2023-12-20T06:31:31;11.40;90.00
7034;DHT22;3558;53.176;10.412;2023-12-20T06:33:58;11.40;90.00
7034;DHT22;3558;53.176;10.412;2023-12-20T06:36:25;11.40;90.00
7034;DHT22;3558;53.176;10.412;2023-12-20T06:38:51;11.40;90.00
7034;DHT22;3558;53.176;10.412;2023-12-20T06:41:17;11.40;90.00
7034;DHT22;3558;53.176;10.412;2023-12-20T06:43:43;11.40;90.00
7034;DHT22;3558;53.176;10.412;2023-12-20T06:46:08;11.40;90.00
7034;DHT22;3558;53.176;10.412;2023-12-20T06:48:34;11.40;90.00
7034;DHT22;3558;53.176;10.412;2023-12-20T06:51:00;11.40;90.00
7034;DHT22;3558;53.176;10.412;2023-12-20T06:53:27;11.40;90.00
7034;DHT22;3558;53.176;10.412;2023-12-20T06:55:53;11.40;90.20
7034;DHT22;3558;53.176;10.412;2023-12-20T06:58:18;11.40;90.10
7034;DHT22;3558;53.176;10.412;2023-12-20T07:00:44;11.40;90.10
7034;DHT22;3558;53.176;10.412;2023-12-20T07:03:09;11.40;90.10
7034;DHT22;3558;53.176;10.412;2023-12-20T07:05:35;11.40;90.00
7034;DHT22;3558;53.176;10.412;2023-12-20T07:08:00;11.40;90.10
7034;DHT22;3558;53.176;10.412;2023-12-20T07:10:27;11.40;90.10
7034;DHT22;3558;53.176;10.412;2023-12-20T07:12:52;11.50;90.10
7034;DHT22;3558;53.176;10.412;2023-12-20T07:15:21;11.40;90.10
7034;DHT22;3558;53.176;10.412;2023-12-20T07:17:46;11.50;90.10
7034;DHT22;3558;53.176;10.412;2023-12-20T07:20:12;11.50;90.10
7034;DHT22;3558;53.176;10.412;2023-12-20T07:22:37;11.50;90.10
7034;DHT22;3558;53.176;10.412;2023-12-20T07:25:03;11.50;90.00
7034;DHT22;3558;53.176;10.412;2023-12-20T07:27:29;11.50;90.10
7034;DHT22;3558;53.176;10.412;2023-12-20T07:29:54;11.40;90.00
7034;DHT22;3558;53.176;10.412;2023-12-20T07:32:20;11.40;90.00
7034;DHT22;3558;53.176;10.412;2023-12-20T07:34:45;11.40;90.00
7034;DHT22;3558;53.176;10.412;2023-12-20T07:37:11;11.40;90.00
7034;DHT22;3558;53.176;10.412;2023-12-20T07:39:38;11.40;90.00
7034;DHT22;3558;53.176;10.412;2023-12-20T07:42:05;11.40;90.00
7034;DHT22;3558;53.176;10.412;2023-12-20T07:44:30;11.40;90.10
7034;DHT22;3558;53.176;10.412;2023-12-20T07:46:56;11.40;90.00
7034;DHT22;3558;53.176;10.412;2023-12-20T07:49:23;11.40;90.00
7034;DHT22;3558;53.176;10.412;2023-12-20T07:51:48;11.40;90.00
7034;DHT22;3558;53.176;10.412;2023-12-20T07:54:14;11.40;90.00
7034;DHT22;3558;53.176;10.412;2023-12-20T07:56:39;11.40;90.00
7034;DHT22;3558;53.176;10.412;2023-12-20T07:59:05;11.40;90.10
7034;DHT22;3558;53.176;10.412;2023-12-20T08:01:31;11.40;90.10
7034;DHT22;3558;53.176;10.412;2023-12-20T08:03:56;11.40;90.10
7034;DHT22;3558;53.176;10.412;2023-12-20T08:06:22;11.40;90.10
7034;DHT22;3558;53.176;10.412;2023-12-20T08:08:48;11.40;90.10
7034;DHT22;3558;53.176;10.412;2023-12-20T08:11:13;11.40;90.10
7034;DHT22;3558;53.176;10.412;2023-12-20T08:13:39;11.40;90.10
7034;DHT22;3558;53.176;10.412;2023-12-20T08:16:04;11.40;90.20
7034;DHT22;3558;53.176;10.412;2023-12-20T08:18:30;11.40;90.20
7034;DHT22;3558;53.176;10.412;2023-12-20T08:20:55;11.40;90.20
7034;DHT22;3558;53.176;10.412;2023-12-20T08:23:21;11.40;90.20
7034;DHT22;3558;53.176;10.412;2023-12-20T08:25:46;11.40;90.20
7034;DHT22;3558;53.176;10.412;2023-12-20T08:28:13;11.40;90.20
7034;DHT22;3558;53.176;10.412;2023-12-20T08:30:38;11.40;90.20
7034;DHT22;3558;53.176;10.412;2023-12-20T08:33:04;11.50;90.20
7034;DHT22;3558;53.176;10.412;2023-12-20T08:35:30;11.50;90.20
7034;DHT22;3558;53.176;10.412;2023-12-20T08:37:56;11.40;90.20
7034;DHT22;3558;53.176;10.412;2023-12-20T08:40:21;11.40;90.30
7034;DHT22;3558;53.176;10.412;2023-12-20T08:42:47;11.40;90.30
7034;DHT22;3558;53.176;10.412;2023-12-20T08:45:12;11.40;90.30
7034;DHT22;3558;53.176;10.412;2023-12-20T08:47:37;11.50;90.30
7034;DHT22;3558;53.176;10.412;2023-12-20T08:50:03;11.40;90.20
7034;DHT22;3558;53.176;10.412;2023-12-20T08:52:29;11.50;90.30
7034;DHT22;3558;53.176;10.412;2023-12-20T08:54:55;11.50;90.30
7034;DHT22;3558;53.176;10.412;2023-12-20T08:57:20;11.40;90.30
7034;DHT22;3558;53.176;10.412;2023-12-20T08:59:47;11.40;90.30
7034;DHT22;3558;53.176;10.412;2023-12-20T09:02:13;11.40;90.30
7034;DHT22;3558;53.176;10.412;2023-12-20T09:04:39;11.50;90.30
7034;DHT22;3558;53.176;10.412;2023-12-20T09:07:04;11.40;90.30
7034;DHT22;3558;53.176;10.412;2023-12-20T09:09:30;11.50;90.40
7034;DHT22;3558;53.176;10.412;2023-12-20T09:11:57;11.50;90.40
7034;DHT22;3558;53.176;10.412;2023-12-20T09:14:23;11.50;90.40
7034;DHT22;3558;53.176;10.412;2023-12-20T09:16:48;11.50;90.40
7034;DHT22;3558;53.176;10.412;2023-12-20T09:19:16;11.50;90.40
7034;DHT22;3558;53.176;10.412;2023-12-20T09:21:42;11.50;90.40
7034;DHT22;3558;53.176;10.412;2023-12-20T09:24:07;11.60;90.50
7034;DHT22;3558;53.176;10.412;2023-12-20T09:26:34;11.50;90.50
7034;DHT22;3558;53.176;10.412;2023-12-20T09:28:59;11.50;90.50
7034;DHT22;3558;53.176;10.412;2023-12-20T09:31:25;11.50;90.50
7034;DHT22;3558;53.176;10.412;2023-12-20T09:33:50;11.50;90.50
7034;DHT22;3558;53.176;10.412;2023-12-20T09:36:16;11.60;90.50
7034;DHT22;3558;53.176;10.412;2023-12-20T09:38:41;11.60;90.50
7034;DHT22;3558;53.176;10.412;2023-12-20T09:41:07;11.60;90.60
7034;DHT22;3558;53.176;10.412;2023-12-20T09:43:37;11.60;90.60
7034;DHT22;3558;53.176;10.412;2023-12-20T09:46:05;11.60;90.60
7034;DHT22;3558;53.176;10.412;2023-12-20T09:48:31;11.60;90.60
7034;DHT22;3558;53.176;10.412;2023-12-20T09:50:58;11.60;90.60
7034;DHT22;3558;53.176;10.412;2023-12-20T09:53:24;11.60;90.60
7034;DHT22;3558;53.176;10.412;2023-12-20T09:55:58;11.60;90.60
7034;DHT22;3558;53.176;10.412;2023-12-20T09:58:24;11.60;90.60
7034;DHT22;3558;53.176;10.412;2023-12-20T10:00:50;11.60;90.70
7034;DHT22;3558;53.176;10.412;2023-12-20T10:03:24;11.60;90.70
7034;DHT22;3558;53.176;10.412;2023-12-20T10:05:53;11.60;90.70
7034;DHT22;3558;53.176;10.412;2023-12-20T10:08:21;11.60;90.70
7034;DHT22;3558;53.176;10.412;2023-12-20T10:10:47;11.60;90.70
7034;DHT22;3558;53.176;10.412;2023-12-20T10:13:12;11.60;90.70
7034;DHT22;3558;53.176;10.412;2023-12-20T10:15:38;11.60;90.70
7034;DHT22;3558;53.176;10.412;2023-12-20T10:18:05;11.60;90.70
7034;DHT22;3558;53.176;10.412;2023-12-20T10:20:31;11.60;90.70
7034;DHT22;3558;53.176;10.412;2023-12-20T10:23:00;11.60;90.70
7034;DHT22;3558;53.176;10.412;2023-12-20T10:25:26;11.60;90.70
7034;DHT22;3558;53.176;10.412;2023-12-20T10:28:12;11.60;90.70
7034;DHT22;3558;53.176;10.412;2023-12-20T10:30:38;11.60;90.70
7034;DHT22;3558;53.176;10.412;2023-12-20T10:33:06;11.60;90.70
7034;DHT22;3558;53.176;10.412;2023-12-20T10:35:32;11.60;90.70
7034;DHT22;3558;53.176;10.412;2023-12-20T10:37:59;11.70;90.70
7034;DHT22;3558;53.176;10.412;2023-12-20T10:40:29;11.70;90.70
7034;DHT22;3558;53.176;10.412;2023-12-20T10:42:56;11.60;90.70
7034;DHT22;3558;53.176;10.412;2023-12-20T10:45:22;11.60;90.70
7034;DHT22;3558;53.176;10.412;2023-12-20T10:47:49;11.70;90.70
7034;DHT22;3558;53.176;10.412;2023-12-20T10:50:15;11.70;90.70
7034;DHT22;3558;53.176;10.412;2023-12-20T10:52:42;11.70;90.70
7034;DHT22;3558;53.176;10.412;2023-12-20T10:55:08;11.70;90.70
7034;DHT22;3558;53.176;10.412;2023-12-20T10:57:36;11.70;90.60
7034;DHT22;3558;53.176;10.412;2023-12-20T11:00:02;11.70;90.90
7034;DHT22;3558;53.176;10.412;2023-12-20T11:02:32;11.70;90.60
7034;DHT22;3558;53.176;10.412;2023-12-20T11:05:44;11.70;90.60
7034;DHT22;3558;53.176;10.412;2023-12-20T11:08:17;11.70;90.60
7034;DHT22;3558;53.176;10.412;2023-12-20T11:13:34;11.70;90.60
7034;DHT22;3558;53.176;10.412;2023-12-20T11:16:01;11.70;90.90
7034;DHT22;3558;53.176;10.412;2023-12-20T11:18:31;11.70;90.70
7034;DHT22;3558;53.176;10.412;2023-12-20T11:21:02;11.70;90.70
7034;DHT22;3558;53.176;10.412;2023-12-20T11:23:32;11.70;90.70
7034;DHT22;3558;53.176;10.412;2023-12-20T11:25:59;11.70;90.90
7034;DHT22;3558;53.176;10.412;2023-12-20T11:28:26;11.70;90.70
7034;DHT22;3558;53.176;10.412;2023-12-20T11:30:55;11.70;90.60
7034;DHT22;3558;53.176;10.412;2023-12-20T11:33:40;11.80;90.70
7034;DHT22;3558;53.176;10.412;2023-12-20T11:36:14;11.70;90.80
7034;DHT22;3558;53.176;10.412;2023-12-20T11:38:54;11.80;90.80
7034;DHT22;3558;53.176;10.412;2023-12-20T11:41:22;11.80;90.70
7034;DHT22;3558;53.176;10.412;2023-12-20T11:43:53;11.80;90.70
7034;DHT22;3558;53.176;10.412;2023-12-20T11:46:18;11.80;90.70
7034;DHT22;3558;53.176;10.412;2023-12-20T11:48:44;11.80;90.70
7034;DHT22;3558;53.176;10.412;2023-12-20T11:51:11;11.80;90.60
7034;DHT22;3558;53.176;10.412;2023-12-20T11:53:37;11.80;90.70
7034;DHT22;3558;53.176;10.412;2023-12-20T11:56:05;11.80;90.70
7034;DHT22;3558;53.176;10.412;2023-12-20T11:58:31;11.80;90.60
7034;DHT22;3558;53.176;10.412;2023-12-20T12:00:57;11.80;90.70
7034;DHT22;3558;53.176;10.412;2023-12-20T12:03:22;11.80;90.60
7034;DHT22;3558;53.176;10.412;2023-12-20T12:05:49;11.80;90.60
7034;DHT22;3558;53.176;10.412;2023-12-20T12:08:14;11.80;90.60
7034;DHT22;3558;53.176;10.412;2023-12-20T12:10:40;11.80;90.60
7034;DHT22;3558;53.176;10.412;2023-12-20T12:13:06;11.80;90.60
7034;DHT22;3558;53.176;10.412;2023-12-20T12:15:31;11.80;90.70
7034;DHT22;3558;53.176;10.412;2023-12-20T12:17:57;11.80;90.70
7034;DHT22;3558;53.176;10.412;2023-12-20T12:20:24;11.80;90.60
7034;DHT22;3558;53.176;10.412;2023-12-20T12:23:00;11.80;90.60
7034;DHT22;3558;53.176;10.412;2023-12-20T12:25:26;11.80;90.70
7034;DHT22;3558;53.176;10.412;2023-12-20T12:27:52;11.90;90.70
7034;DHT22;3558;53.176;10.412;2023-12-20T12:30:18;11.90;90.70
7034;DHT22;3558;53.176;10.412;2023-12-20T12:32:46;11.90;90.70
7034;DHT22;3558;53.176;10.412;2023-12-20T12:35:12;11.90;90.70
7034;DHT22;3558;53.176;10.412;2023-12-20T12:37:38;11.90;90.70
7034;DHT22;3558;53.176;10.412;2023-12-20T12:40:10;12.00;90.80
7034;DHT22;3558;53.176;10.412;2023-12-20T12:42:36;12.00;90.90
7034;DHT22;3558;53.176;10.412;2023-12-20T12:45:02;12.00;90.90
7034;DHT22;3558;53.176;10.412;2023-12-20T12:47:28;12.00;90.90
7034;DHT22;3558;53.176;10.412;2023-12-20T12:49:53;12.00;90.90
7034;DHT22;3558;53.176;10.412;2023-12-20T12:52:19;12.00;90.90
7034;DHT22;3558;53.176;10.412;2023-12-20T12:54:45;12.00;90.90
7034;DHT22;3558;53.176;10.412;2023-12-20T12:57:11;12.00;90.90
7034;DHT22;3558;53.176;10.412;2023-12-20T12:59:37;12.00;90.90
7034;DHT22;3558;53.176;10.412;2023-12-20T13:02:02;12.00;91.20
7034;DHT22;3558;53.176;10.412;2023-12-20T13:04:28;12.10;90.90
7034;DHT22;3558;53.176;10.412;2023-12-20T13:06:53;12.10;90.90
7034;DHT22;3558;53.176;10.412;2023-12-20T13:09:19;12.00;90.90
7034;DHT22;3558;53.176;10.412;2023-12-20T13:11:44;12.10;90.80
7034;DHT22;3558;53.176;10.412;2023-12-20T13:14:10;12.10;90.80
7034;DHT22;3558;53.176;10.412;2023-12-20T13:16:41;12.00;90.70
7034;DHT22;3558;53.176;10.412;2023-12-20T13:19:06;12.00;90.70
7034;DHT22;3558;53.176;10.412;2023-12-20T13:21:32;12.00;90.60
7034;DHT22;3558;53.176;10.412;2023-12-20T13:23:57;12.00;90.60
7034;DHT22;3558;53.176;10.412;2023-12-20T13:26:23;12.00;90.50
7034;DHT22;3558;53.176;10.412;2023-12-20T13:28:48;12.00;90.40
7034;DHT22;3558;53.176;10.412;2023-12-20T13:31:13;12.00;90.40
7034;DHT22;3558;53.176;10.412;2023-12-20T13:33:39;12.00;90.40
7034;DHT22;3558;53.176;10.412;2023-12-20T13:36:06;12.00;90.40
7034;DHT22;3558;53.176;10.412;2023-12-20T13:38:31;11.90;90.30
7034;DHT22;3558;53.176;10.412;2023-12-20T13:40:57;12.00;90.30
7034;DHT22;3558;53.176;10.412;2023-12-20T13:43:24;11.90;90.30
7034;DHT22;3558;53.176;10.412;2023-12-20T13:45:50;11.90;90.20
7034;DHT22;3558;53.176;10.412;2023-12-20T13:48:16;11.90;90.20
7034;DHT22;3558;53.176;10.412;2023-12-20T13:50:41;11.90;90.20
7034;DHT22;3558;53.176;10.412;2023-12-20T13:53:07;11.90;90.20
7034;DHT22;3558;53.176;10.412;2023-12-20T13:55:32;11.90;90.20
7034;DHT22;3558;53.176;10.412;2023-12-20T13:57:58;11.90;90.20
7034;DHT22;3558;53.176;10.412;2023-12-20T14:00:23;11.80;90.20
7034;DHT22;3558;53.176;10.412;2023-12-20T14:02:49;11.90;90.40
7034;DHT22;3558;53.176;10.412;2023-12-20T14:05:15;11.80;90.10
7034;DHT22;3558;53.176;10.412;2023-12-20T14:07:45;11.80;90.10
7034;DHT22;3558;53.176;10.412;2023-12-20T14:10:12;11.80;90.10
7034;DHT22;3558;53.176;10.412;2023-12-20T14:12:39;11.80;90.10
7034;DHT22;3558;53.176;10.412;2023-12-20T14:15:05;11.80;90.10
7034;DHT22;3558;53.176;10.412;2023-12-20T14:17:37;11.80;90.00
7034;DHT22;3558;53.176;10.412;2023-12-20T14:20:03;11.80;90.10
7034;DHT22;3558;53.176;10.412;2023-12-20T14:22:28;11.80;90.10
7034;DHT22;3558;53.176;10.412;2023-12-20T14:24:54;11.80;90.00
7034;DHT22;3558;53.176;10.412;2023-12-20T14:27:20;11.80;90.00
7034;DHT22;3558;53.176;10.412;2023-12-20T14:29:49;11.80;90.00
7034;DHT22;3558;53.176;10.412;2023-12-20T14:32:15;11.80;90.00
7034;DHT22;3558;53.176;10.412;2023-12-20T14:34:41;11.70;90.00
7034;DHT22;3558;53.176;10.412;2023-12-20T14:37:07;11.70;90.00
7034;DHT22;3558;53.176;10.412;2023-12-20T14:39:32;11.70;89.90
7034;DHT22;3558;53.176;10.412;2023-12-20T14:41:58;11.70;89.80
7034;DHT22;3558;53.176;10.412;2023-12-20T14:44:23;11.70;89.70
7034;DHT22;3558;53.176;10.412;2023-12-20T14:46:49;11.70;89.70
7034;DHT22;3558;53.176;10.412;2023-12-20T14:49:15;11.70;89.70
7034;DHT22;3558;53.176;10.412;2023-12-20T14:51:44;11.70;89.60
7034;DHT22;3558;53.176;10.412;2023-12-20T14:54:09;11.60;89.50
7034;DHT22;3558;53.176;10.412;2023-12-20T14:56:35;11.60;89.40
7034;DHT22;3558;53.176;10.412;2023-12-20T14:59:01;11.60;89.40
7034;DHT22;3558;53.176;10.412;2023-12-20T15:01:26;11.60;89.40
7034;DHT22;3558;53.176;10.412;2023-12-20T15:03:52;11.60;89.40
7034;DHT22;3558;53.176;10.412;2023-12-20T15:06:18;11.60;89.40
7034;DHT22;3558;53.176;10.412;2023-12-20T15:08:45;11.50;89.40
7034;DHT22;3558;53.176;10.412;2023-12-20T15:11:11;11.50;89.30
7034;DHT22;3558;53.176;10.412;2023-12-20T15:13:37;11.50;89.30
7034;DHT22;3558;53.176;10.412;2023-12-20T15:16:04;11.50;89.30
7034;DHT22;3558;53.176;10.412;2023-12-20T15:18:30;11.50;89.30
7034;DHT22;3558;53.176;10.412;2023-12-20T15:20:57;11.40;89.30
7034;DHT22;3558;53.176;10.412;2023-12-20T15:23:22;11.50;89.20
7034;DHT22;3558;53.176;10.412;2023-12-20T15:25:51;11.50;89.20
7034;DHT22;3558;53.176;10.412;2023-12-20T15:28:17;11.40;89.20
7034;DHT22;3558;53.176;10.412;2023-12-20T15:30:42;11.40;89.20
7034;DHT22;3558;53.176;10.412;2023-12-20T15:33:08;11.40;89.30
7034;DHT22;3558;53.176;10.412;2023-12-20T15:35:34;11.40;89.30
7034;DHT22;3558;53.176;10.412;2023-12-20T15:37:59;11.40;89.20
7034;DHT22;3558;53.176;10.412;2023-12-20T15:40:25;11.40;89.10
7034;DHT22;3558;53.176;10.412;2023-12-20T15:42:50;11.40;89.20
7034;DHT22;3558;53.176;10.412;2023-12-20T15:45:16;11.30;89.30
7034;DHT22;3558;53.176;10.412;2023-12-20T15:47:41;11.30;89.40
7034;DHT22;3558;53.176;10.412;2023-12-20T15:50:07;11.30;89.30
7034;DHT22;3558;53.176;10.412;2023-12-20T15:52:33;11.40;89.20
7034;DHT22;3558;53.176;10.412;2023-12-20T15:54:58;11.30;89.70
7034;DHT22;3558;53.176;10.412;2023-12-20T15:57:24;11.30;89.20
7034;DHT22;3558;53.176;10.412;2023-12-20T15:59:49;11.30;89.20
7034;DHT22;3558;53.176;10.412;2023-12-20T16:02:17;11.40;89.20
7034;DHT22;3558;53.176;10.412;2023-12-20T16:04:43;11.30;89.10
7034;DHT22;3558;53.176;10.412;2023-12-20T16:07:09;11.30;89.10
7034;DHT22;3558;53.176;10.412;2023-12-20T16:09:34;11.30;89.10
7034;DHT22;3558;53.176;10.412;2023-12-20T16:12:00;11.30;89.00
7034;DHT22;3558;53.176;10.412;2023-12-20T16:14:25;11.30;89.00
7034;DHT22;3558;53.176;10.412;2023-12-20T16:16:54;11.30;89.10
7034;DHT22;3558;53.176;10.412;2023-12-20T16:19:20;11.30;89.10
7034;DHT22;3558;53.176;10.412;2023-12-20T16:21:45;11.30;89.10
7034;DHT22;3558;53.176;10.412;2023-12-20T16:24:11;11.30;89.20
7034;DHT22;3558;53.176;10.412;2023-12-20T16:26:36;11.30;89.20
7034;DHT22;3558;53.176;10.412;2023-12-20T16:29:02;11.30;89.20
7034;DHT22;3558;53.176;10.412;2023-12-20T16:31:27;11.20;89.10
7034;DHT22;3558;53.176;10.412;2023-12-20T16:33:53;11.30;89.10
7034;DHT22;3558;53.176;10.412;2023-12-20T16:36:19;11.20;89.10
7034;DHT22;3558;53.176;10.412;2023-12-20T16:38:45;11.30;89.10
7034;DHT22;3558;53.176;10.412;2023-12-20T16:41:11;11.20;89.00
7034;DHT22;3558;53.176;10.412;2023-12-20T16:43:36;11.30;89.10
7034;DHT22;3558;53.176;10.412;2023-12-20T16:46:02;11.20;89.00
7034;DHT22;3558;53.176;10.412;2023-12-20T16:48:28;11.20;89.00
7034;DHT22;3558;53.176;10.412;2023-12-20T16:50:54;11.20;89.00
7034;DHT22;3558;53.176;10.412;2023-12-20T16:53:19;11.30;89.00
7034;DHT22;3558;53.176;10.412;2023-12-20T16:55:46;11.20;89.00
7034;DHT22;3558;53.176;10.412;2023-12-20T16:58:11;11.20;89.00
7034;DHT22;3558;53.176;10.412;2023-12-20T17:00:37;11.20;88.90
7034;DHT22;3558;53.176;10.412;2023-12-20T17:03:03;11.20;89.00
7034;DHT22;3558;53.176;10.412;2023-12-20T17:05:29;11.20;89.50
7034;DHT22;3558;53.176;10.412;2023-12-20T17:07:55;11.20;89.10
7034;DHT22;3558;53.176;10.412;2023-12-20T17:10:21;11.20;88.90
7034;DHT22;3558;53.176;10.412;2023-12-20T17:12:46;11.20;88.90
7034;DHT22;3558;53.176;10.412;2023-12-20T17:15:12;11.20;88.90
7034;DHT22;3558;53.176;10.412;2023-12-20T17:17:38;11.20;88.90
7034;DHT22;3558;53.176;10.412;2023-12-20T17:20:04;11.10;88.80
7034;DHT22;3558;53.176;10.412;2023-12-20T17:22:29;11.10;88.80
7034;DHT22;3558;53.176;10.412;2023-12-20T17:24:55;11.20;88.90
7034;DHT22;3558;53.176;10.412;2023-12-20T17:27:20;11.10;88.80
7034;DHT22;3558;53.176;10.412;2023-12-20T17:29:46;11.10;88.80
7034;DHT22;3558;53.176;10.412;2023-12-20T17:32:11;11.10;88.90
7034;DHT22;3558;53.176;10.412;2023-12-20T17:34:37;11.20;89.00
7034;DHT22;3558;53.176;10.412;2023-12-20T17:37:03;11.10;88.90
7034;DHT22;3558;53.176;10.412;2023-12-20T17:39:28;11.10;88.80
7034;DHT22;3558;53.176;10.412;2023-12-20T17:41:54;11.10;88.80
7034;DHT22;3558;53.176;10.412;2023-12-20T17:44:19;11.10;88.90
7034;DHT22;3558;53.176;10.412;2023-12-20T17:46:46;11.10;89.00
7034;DHT22;3558;53.176;10.412;2023-12-20T17:49:12;11.10;88.90
7034;DHT22;3558;53.176;10.412;2023-12-20T17:51:37;11.10;89.00
7034;DHT22;3558;53.176;10.412;2023-12-20T17:54:03;11.10;88.90
7034;DHT22;3558;53.176;10.412;2023-12-20T17:56:30;11.10;89.00
7034;DHT22;3558;53.176;10.412;2023-12-20T17:58:55;11.10;89.00
7034;DHT22;3558;53.176;10.412;2023-12-20T18:01:21;11.10;89.00
7034;DHT22;3558;53.176;10.412;2023-12-20T18:03:47;11.10;89.00
7034;DHT22;3558;53.176;10.412;2023-12-20T18:06:13;11.10;89.00
7034;DHT22;3558;53.176;10.412;2023-12-20T18:08:38;11.10;89.10
7034;DHT22;3558;53.176;10.412;2023-12-20T18:11:04;11.10;89.10
7034;DHT22;3558;53.176;10.412;2023-12-20T18:13:29;11.10;89.00
7034;DHT22;3558;53.176;10.412;2023-12-20T18:15:55;11.00;89.10
7034;DHT22;3558;53.176;10.412;2023-12-20T18:18:21;11.10;89.10
7034;DHT22;3558;53.176;10.412;2023-12-20T18:20:46;11.00;89.00
7034;DHT22;3558;53.176;10.412;2023-12-20T18:23:12;11.10;89.10
7034;DHT22;3558;53.176;10.412;2023-12-20T18:25:38;11.10;89.10
7034;DHT22;3558;53.176;10.412;2023-12-20T18:28:04;11.00;89.00
7034;DHT22;3558;53.176;10.412;2023-12-20T18:30:29;11.10;88.90
7034;DHT22;3558;53.176;10.412;2023-12-20T18:32:55;11.00;88.80
7034;DHT22;3558;53.176;10.412;2023-12-20T18:35:21;11.00;88.80
7034;DHT22;3558;53.176;10.412;2023-12-20T18:37:46;11.00;88.90
7034;DHT22;3558;53.176;10.412;2023-12-20T18:40:12;11.00;88.90
7034;DHT22;3558;53.176;10.412;2023-12-20T18:42:38;11.00;88.80
7034;DHT22;3558;53.176;10.412;2023-12-20T18:45:03;11.00;88.90
7034;DHT22;3558;53.176;10.412;2023-12-20T18:47:30;11.00;88.80
7034;DHT22;3558;53.176;10.412;2023-12-20T18:49:55;11.00;88.90
7034;DHT22;3558;53.176;10.412;2023-12-20T18:52:21;11.00;89.00
7034;DHT22;3558;53.176;10.412;2023-12-20T18:54:48;11.00;88.90
7034;DHT22;3558;53.176;10.412;2023-12-20T18:57:14;11.00;88.80
7034;DHT22;3558;53.176;10.412;2023-12-20T18:59:39;11.00;88.80
7034;DHT22;3558;53.176;10.412;2023-12-20T19:02:05;11.00;88.80
7034;DHT22;3558;53.176;10.412;2023-12-20T19:04:33;11.00;88.80
7034;DHT22;3558;53.176;10.412;2023-12-20T19:06:59;10.90;88.80
7034;DHT22;3558;53.176;10.412;2023-12-20T19:09:25;10.90;88.80
7034;DHT22;3558;53.176;10.412;2023-12-20T19:11:51;11.00;88.80
7034;DHT22;3558;53.176;10.412;2023-12-20T19:14:16;11.00;88.80
7034;DHT22;3558;53.176;10.412;2023-12-20T19:16:42;10.90;88.80
7034;DHT22;3558;53.176;10.412;2023-12-20T19:19:08;10.90;88.90
7034;DHT22;3558;53.176;10.412;2023-12-20T19:21:33;10.90;88.90
7034;DHT22;3558;53.176;10.412;2023-12-20T19:23:59;10.90;88.90
7034;DHT22;3558;53.176;10.412;2023-12-20T19:26:25;10.90;89.00